Time;durP1;ratioP1;P1;durP2;ratioP2;P2;SDS_P1;SDS_P2;PMS_P1;PMS_P2;Temp;Humidity;BMP_temperature;BMP_pressure;BME280_temperature;BME280_humidity;BME280_pressure;Samples;Min_cycle;Max_cycle;Signal;HPM_P1;HPM_P2
2023/09/12 00:00:23;;;;;;;7.70;3.40;;;;;;;12.36;100.00;101066.86;110250;1235;59240;-73
2023/09/12 00:03:12;;;;;;;8.00;3.40;;;;;;;12.35;100.00;101065.66;110269;1236;64370;-73
2023/09/12 00:05:41;;;;;;;4.60;3.20;;;;;;;12.38;100.00;101062.31;110313;1236;61808;-72
2023/09/12 00:08:10;;;;;;;7.00;3.80;;;;;;;12.40;100.00;101065.52;110290;1236;71048;-73
2023/09/12 00:10:38;;;;;;;8.80;3.90;;;;;;;12.43;100.00;101066.87;110073;1237;74150;-73
2023/09/12 00:13:07;;;;;;;7.30;4.20;;;;;;;12.50;100.00;101068.77;110166;1238;58015;-72
2023/09/12 00:15:36;;;;;;;9.00;3.80;;;;;;;12.54;100.00;101065.17;110188;1237;59369;-71
2023/09/12 00:18:05;;;;;;;10.20;4.00;;;;;;;12.61;100.00;101071.08;110218;1236;73892;-72
2023/09/12 00:20:33;;;;;;;7.50;3.90;;;;;;;12.74;100.00;101072.02;110144;1237;71528;-73
2023/09/12 00:23:04;;;;;;;10.70;4.00;;;;;;;12.81;100.00;101073.57;110148;1238;60464;-74
2023/09/12 00:25:32;;;;;;;7.10;3.90;;;;;;;12.81;100.00;101071.86;110022;1236;73871;-73
2023/09/12 00:28:01;;;;;;;7.30;3.50;;;;;;;12.84;100.00;101075.63;110123;1238;58066;-76
2023/09/12 00:30:31;;;;;;;7.20;3.60;;;;;;;12.85;100.00;101072.42;110152;1236;59732;-73
2023/09/12 00:33:00;;;;;;;7.70;3.60;;;;;;;12.79;100.00;101073.56;110051;1236;72328;-73
2023/09/12 00:35:28;;;;;;;6.90;3.60;;;;;;;12.70;100.00;101074.23;110037;1237;72954;-79
2023/09/12 00:37:57;;;;;;;6.30;3.60;;;;;;;12.66;100.00;101078.77;110044;1236;60200;-75
2023/09/12 00:40:26;;;;;;;6.80;3.90;;;;;;;12.61;100.00;101079.48;110031;1237;63341;-73
2023/09/12 00:42:55;;;;;;;6.00;3.50;;;;;;;12.54;100.00;101078.83;110120;1238;60431;-77
2023/09/12 00:45:24;;;;;;;6.10;3.20;;;;;;;12.52;100.00;101080.19;110031;1238;57342;-75
2023/09/12 00:47:54;;;;;;;6.50;3.70;;;;;;;12.45;100.00;101076.32;110195;1237;62976;-74
2023/09/12 00:50:25;;;;;;;6.20;3.80;;;;;;;12.41;100.00;101076.95;109974;1237;71185;-75
2023/09/12 00:52:54;;;;;;;9.30;3.90;;;;;;;12.34;100.00;101077.26;110021;1237;70695;-74
2023/09/12 00:55:23;;;;;;;8.70;3.70;;;;;;;12.29;100.00;101079.29;109944;1241;63496;-78
2023/09/12 00:57:53;;;;;;;7.50;3.70;;;;;;;12.23;100.00;101074.76;110091;1237;57113;-78
2023/09/12 01:00:23;;;;;;;5.90;3.70;;;;;;;12.18;100.00;101078.11;110114;1238;57759;-77
2023/09/12 01:02:53;;;;;;;8.70;3.60;;;;;;;12.16;100.00;101084.39;109983;1236;73406;-77
2023/09/12 01:05:23;;;;;;;7.20;3.30;;;;;;;12.14;100.00;101084.67;110113;1236;72777;-77
2023/09/12 01:07:51;;;;;;;8.70;4.00;;;;;;;12.12;100.00;101084.52;110001;1237;71601;-76
2023/09/12 01:10:21;;;;;;;8.20;3.80;;;;;;;12.10;100.00;101083.41;110097;1236;74383;-78
2023/09/12 01:12:50;;;;;;;7.10;3.80;;;;;;;12.06;100.00;101083.17;109873;1241;63429;-78
2023/09/12 01:15:19;;;;;;;7.80;4.50;;;;;;;12.04;100.00;101084.93;110115;1236;57228;-77
2023/09/12 01:17:48;;;;;;;6.20;3.70;;;;;;;12.00;100.00;101083.65;109995;1237;72833;-79
2023/09/12 01:20:31;;;;;;;7.40;3.80;;;;;;;11.95;100.00;101084.14;110096;1238;61900;-77
2023/09/12 01:23:28;;;;;;;7.70;4.20;;;;;;;11.91;100.00;101080.42;110048;1236;70981;-77
2023/09/12 01:26:08;;;;;;;7.40;4.10;;;;;;;11.86;100.00;101082.90;110216;1236;73206;-76
2023/09/12 01:28:42;;;;;;;7.80;3.80;;;;;;;11.79;100.00;101083.36;110077;1239;57480;-77
2023/09/12 01:31:15;;;;;;;7.10;3.80;;;;;;;11.73;100.00;101081.34;109893;1237;60226;-77
2023/09/12 01:33:44;;;;;;;9.00;4.30;;;;;;;11.69;100.00;101083.58;110011;1236;73324;-77
2023/09/12 01:36:13;;;;;;;7.30;4.00;;;;;;;11.63;100.00;101079.80;110086;1236;71609;-76
2023/09/12 01:38:42;;;;;;;6.80;4.00;;;;;;;11.55;100.00;101085.23;109995;1236;70650;-76
2023/09/12 01:41:12;;;;;;;7.00;4.60;;;;;;;11.50;100.00;101084.20;110134;1238;73451;-77
2023/09/12 01:43:42;;;;;;;6.80;4.50;;;;;;;11.44;100.00;101088.28;110262;1236;63430;-77
2023/09/12 01:46:13;;;;;;;7.40;5.20;;;;;;;11.42;100.00;101089.16;110073;1238;57180;-78
2023/09/12 01:48:43;;;;;;;7.20;4.80;;;;;;;11.39;100.00;101086.31;110077;1239;72450;-78
2023/09/12 01:51:14;;;;;;;10.00;5.20;;;;;;;11.36;100.00;101089.52;110301;1237;71731;-76
2023/09/12 01:53:45;;;;;;;7.20;4.80;;;;;;;11.33;100.00;101092.86;110182;1239;59444;-78
2023/09/12 01:56:14;;;;;;;7.80;5.60;;;;;;;11.30;100.00;101096.73;110045;1236;62633;-75
2023/09/12 01:58:43;;;;;;;10.10;5.00;;;;;;;11.27;100.00;101101.35;110254;1238;57621;-76
2023/09/12 02:01:12;;;;;;;10.10;5.20;;;;;;;11.23;100.00;101095.83;109968;1236;57184;-74
2023/09/12 02:03:41;;;;;;;7.90;5.70;;;;;;;11.22;100.00;101099.02;110225;1236;72586;-74
2023/09/12 02:06:10;;;;;;;10.40;5.50;;;;;;;11.23;100.00;101099.02;110078;1235;72971;-74
2023/09/12 02:08:38;;;;;;;8.10;6.20;;;;;;;11.27;100.00;101099.06;110105;1236;70010;-74
2023/09/12 02:11:09;;;;;;;10.00;6.40;;;;;;;11.29;100.00;101098.57;110232;1236;74359;-74
2023/09/12 02:13:38;;;;;;;10.10;6.30;;;;;;;11.28;100.00;101100.86;110253;1237;57202;-75
2023/09/12 02:16:08;;;;;;;12.30;6.60;;;;;;;11.29;100.00;101097.54;110232;1238;57755;-78
2023/09/12 02:18:37;;;;;;;10.60;7.00;;;;;;;11.28;100.00;101097.98;110134;1239;62891;-78
2023/09/12 02:21:06;;;;;;;11.20;7.50;;;;;;;11.24;100.00;101102.04;110269;1236;61418;-73
2023/09/12 02:23:35;;;;;;;13.20;7.70;;;;;;;11.23;100.00;101101.44;110212;1238;70059;-72
2023/09/12 02:26:03;;;;;;;12.70;9.10;;;;;;;11.22;100.00;101102.24;110161;1236;74120;-73
2023/09/12 02:28:32;;;;;;;13.40;8.70;;;;;;;11.20;100.00;101100.08;110029;1239;63048;-72
2023/09/12 02:31:01;;;;;;;14.50;10.80;;;;;;;11.19;100.00;101097.17;110162;1238;57696;-77
2023/09/12 02:33:30;;;;;;;14.50;9.60;;;;;;;11.17;100.00;101100.27;110139;1238;62706;-75
2023/09/12 02:35:59;;;;;;;15.00;10.00;;;;;;;11.15;100.00;101102.00;109989;1237;60697;-78
2023/09/12 02:38:28;;;;;;;17.60;9.40;;;;;;;11.14;100.00;101096.96;110131;1235;69775;-78
2023/09/12 02:40:57;;;;;;;20.40;10.00;;;;;;;11.11;100.00;101097.91;110022;1237;73342;-78
2023/09/12 02:43:25;;;;;;;18.30;9.80;;;;;;;11.08;100.00;101099.35;110045;1238;57253;-78
2023/09/12 02:45:54;;;;;;;16.50;10.40;;;;;;;11.04;100.00;101097.86;110070;1238;58242;-78
2023/09/12 02:48:23;;;;;;;15.80;9.80;;;;;;;11.02;100.00;101096.27;110006;1237;64267;-78
2023/09/12 02:50:53;;;;;;;20.30;10.70;;;;;;;11.00;100.00;101095.17;110125;1238;61560;-77
2023/09/12 02:53:21;;;;;;;15.60;10.30;;;;;;;10.96;100.00;101098.23;110010;1236;70282;-78
2023/09/12 02:55:51;;;;;;;17.90;11.70;;;;;;;10.92;100.00;101097.83;110053;1236;64934;-77
2023/09/12 02:58:20;;;;;;;17.60;12.00;;;;;;;10.89;100.00;101099.91;109931;1237;57487;-75
2023/09/12 03:00:50;;;;;;;22.50;14.20;;;;;;;10.87;100.00;101102.63;109916;1236;57077;-75
2023/09/12 03:03:18;;;;;;;24.10;14.60;;;;;;;10.85;100.00;101101.57;110091;1237;72605;-75
2023/09/12 03:05:47;;;;;;;21.30;12.50;;;;;;;10.87;100.00;101103.87;110107;1238;72678;-75
2023/09/12 03:08:16;;;;;;;20.40;12.80;;;;;;;10.89;100.00;101104.63;110056;1237;59345;-78
2023/09/12 03:10:54;;;;;;;23.60;13.60;;;;;;;10.86;100.00;101108.16;110054;1237;63135;-76
2023/09/12 03:13:25;;;;;;;24.60;14.80;;;;;;;10.80;100.00;101108.18;109951;1241;57750;-80
2023/09/12 03:15:54;;;;;;;29.10;14.60;;;;;;;10.77;100.00;101104.53;109971;1236;60201;-79
2023/09/12 03:18:23;;;;;;;21.90;14.40;;;;;;;10.76;100.00;101106.16;109946;1236;63385;-78
2023/09/12 03:20:52;;;;;;;22.50;13.70;;;;;;;10.75;100.00;101107.66;110146;1236;61437;-81
2023/09/12 03:23:21;;;;;;;27.10;14.20;;;;;;;10.74;100.00;101107.23;110009;1237;70288;-77
2023/09/12 03:25:50;;;;;;;24.60;14.00;;;;;;;10.73;100.00;101115.11;110088;1236;74207;-73
2023/09/12 03:28:18;;;;;;;28.20;16.40;;;;;;;10.73;100.00;101116.82;109968;1239;63869;-79
2023/09/12 03:30:48;;;;;;;29.80;16.70;;;;;;;10.72;100.00;101116.39;110086;1238;61410;-81
2023/09/12 03:33:17;;;;;;;26.70;15.20;;;;;;;10.71;100.00;101116.28;110098;1238;73111;-82
2023/09/12 03:35:45;;;;;;;32.00;16.00;;;;;;;10.72;100.00;101115.36;109957;1239;72330;-79
2023/09/12 03:38:14;;;;;;;29.20;15.20;;;;;;;10.73;100.00;101113.18;110048;1237;60631;-80
2023/09/12 03:40:43;;;;;;;43.10;27.90;;;;;;;10.73;100.00;101114.23;109967;1237;63136;-79
2023/09/12 03:43:12;;;;;;;28.50;14.90;;;;;;;10.70;100.00;101116.02;110022;1238;61876;-80
2023/09/12 03:45:40;;;;;;;40.20;19.40;;;;;;;10.70;100.00;101121.02;109981;1237;57278;-79
2023/09/12 03:48:09;;;;;;;44.40;25.80;;;;;;;10.69;100.00;101120.27;109935;1237;73499;-73
2023/09/12 03:50:38;;;;;;;28.20;15.70;;;;;;;10.67;100.00;101122.30;109973;1238;72681;-73
2023/09/12 03:53:08;;;;;;;30.30;17.80;;;;;;;10.66;100.00;101124.65;110008;1237;68950;-74
2023/09/12 03:55:37;;;;;;;33.50;17.50;;;;;;;10.62;100.00;101125.91;109913;1235;73823;-75
2023/09/12 03:58:05;;;;;;;29.00;15.90;;;;;;;10.61;100.00;101126.67;110257;1236;63358;-74
2023/09/12 04:00:34;;;;;;;29.10;15.60;;;;;;;10.63;100.00;101125.84;110093;1235;61705;-72
2023/09/12 04:03:04;;;;;;;34.10;16.20;;;;;;;10.72;100.00;101122.29;110041;1236;63614;-71
2023/09/12 04:05:33;;;;;;;33.90;17.40;;;;;;;10.71;100.00;101121.82;110145;1237;61607;-70
2023/09/12 04:08:02;;;;;;;34.30;16.90;;;;;;;10.73;100.00;101121.88;110127;1236;69832;-73
2023/09/12 04:10:32;;;;;;;31.30;16.60;;;;;;;10.74;100.00;101123.05;110170;1236;62604;-73
2023/09/12 04:13:01;;;;;;;29.10;16.60;;;;;;;10.78;100.00;101126.42;110265;1235;62710;-71
2023/09/12 04:15:29;;;;;;;33.20;17.80;;;;;;;10.80;100.00;101121.45;110260;1237;57776;-71
2023/09/12 04:17:58;;;;;;;28.60;16.30;;;;;;;10.88;100.00;101127.16;110055;1236;62753;-72
2023/09/12 04:20:27;;;;;;;35.70;16.80;;;;;;;10.94;100.00;101128.02;110021;1237;61838;-73
2023/09/12 04:22:56;;;;;;;33.70;18.10;;;;;;;11.01;100.00;101130.66;110079;1236;69859;-73
2023/09/12 04:25:25;;;;;;;39.80;18.00;;;;;;;11.07;100.00;101129.36;109999;1239;74050;-73
2023/09/12 04:27:54;;;;;;;47.40;18.50;;;;;;;11.14;100.00;101131.32;110187;1235;57216;-72
2023/09/12 04:30:23;;;;;;;44.20;17.80;;;;;;;11.22;100.00;101130.77;110070;1237;57135;-72
2023/09/12 04:32:52;;;;;;;41.50;16.80;;;;;;;11.33;100.00;101129.70;110035;1239;73250;-73
2023/09/12 04:35:20;;;;;;;56.20;20.60;;;;;;;11.45;100.00;101131.51;110018;1237;72632;-72
2023/09/12 04:37:49;;;;;;;43.10;19.40;;;;;;;11.56;100.00;101134.70;110023;1238;59834;-72
2023/09/12 04:40:18;;;;;;;44.00;18.30;;;;;;;11.69;100.00;101137.44;110025;1236;71640;-72
2023/09/12 04:42:47;;;;;;;35.50;20.30;;;;;;;11.83;100.00;101136.70;110146;1237;63352;-72
2023/09/12 04:45:16;;;;;;;48.80;20.20;;;;;;;11.98;100.00;101137.02;110081;1237;62668;-72
2023/09/12 04:47:45;;;;;;;44.40;19.90;;;;;;;12.10;100.00;101134.02;109916;1237;62917;-73
2023/09/12 04:50:14;;;;;;;38.80;18.30;;;;;;;12.26;100.00;101134.30;109953;1237;71316;-72
2023/09/12 04:52:42;;;;;;;44.50;16.70;;;;;;;12.41;100.00;101128.96;110003;1237;70291;-71
2023/09/12 04:55:11;;;;;;;37.10;16.30;;;;;;;12.58;100.00;101128.44;109906;1238;74100;-72
2023/09/12 04:57:40;;;;;;;40.70;15.80;;;;;;;12.74;100.00;101128.14;110033;1236;57579;-72
2023/09/12 05:00:11;;;;;;;51.00;15.40;;;;;;;12.92;100.00;101132.03;109991;1236;57176;-72
2023/09/12 05:02:40;;;;;;;42.00;14.20;;;;;;;13.10;100.00;101138.38;110206;1236;72398;-71
2023/09/12 05:05:09;;;;;;;32.00;12.20;;;;;;;13.28;100.00;101138.91;110045;1238;72787;-71
2023/09/12 05:07:37;;;;;;;29.80;12.20;;;;;;;13.47;100.00;101137.48;109984;1236;71429;-72
2023/09/12 05:10:07;;;;;;;24.20;10.70;;;;;;;13.68;100.00;101137.37;110109;1236;63628;-72
2023/09/12 05:12:36;;;;;;;23.20;9.20;;;;;;;13.91;100.00;101140.84;110213;1236;62165;-76
2023/09/12 05:15:05;;;;;;;20.90;8.90;;;;;;;14.09;100.00;101139.23;109973;1236;61914;-81
2023/09/12 05:17:34;;;;;;;15.80;9.00;;;;;;;14.34;100.00;101142.11;110041;1238;63192;-80
2023/09/12 05:20:07;;;;;;;23.30;8.90;;;;;;;14.61;100.00;101144.48;110129;1237;72184;-74
2023/09/12 05:22:35;;;;;;;;;;;;;;;14.86;100.00;101137.30;110259;1235;70657;-80
2023/09/12 05:25:05;;;;;;;19.70;7.60;;;;;;;15.14;100.00;101140.55;110124;1239;64116;-74
2023/09/12 05:27:34;;;;;;;18.80;7.80;;;;;;;15.38;100.00;101140.09;110038;1239;62656;-75
2023/09/12 05:30:03;;;;;;;19.90;8.40;;;;;;;15.58;100.00;101141.48;110144;1238;60541;-81
2023/09/12 05:32:32;;;;;;;14.40;7.00;;;;;;;15.73;100.00;101141.59;110113;1238;61966;-79
2023/09/12 05:35:01;;;;;;;19.90;7.70;;;;;;;15.82;100.00;101143.15;110250;1237;61653;-79
2023/09/12 05:37:47;;;;;;;17.10;7.60;;;;;;;16.02;100.00;101140.28;110060;1237;69435;-69
2023/09/12 05:40:17;;;;;;;30.10;8.40;;;;;;;16.08;100.00;101141.86;110122;1236;63564;-80
2023/09/12 05:42:45;;;;;;;21.40;7.80;;;;;;;16.21;100.00;101142.88;110016;1240;62674;-79
2023/09/12 05:45:14;;;;;;;24.90;8.50;;;;;;;16.37;100.00;101144.05;110339;1237;60828;-78
2023/09/12 05:47:43;;;;;;;14.90;7.50;;;;;;;16.62;100.00;101143.49;110053;1236;73262;-74
2023/09/12 05:50:12;;;;;;;15.60;6.70;;;;;;;16.80;100.00;101138.73;110062;1236;62151;-77
2023/09/12 05:52:42;;;;;;;26.10;7.50;;;;;;;16.86;100.00;101140.29;110085;1238;70266;-79
2023/09/12 05:55:12;;;;;;;19.60;6.70;;;;;;;16.90;100.00;101138.41;109993;1236;74460;-72
2023/09/12 05:57:41;;;;;;;17.00;6.60;;;;;;;16.90;100.00;101140.33;109989;1239;57751;-72
2023/09/12 06:00:11;;;;;;;29.00;7.60;;;;;;;16.95;100.00;101143.36;109881;1236;57695;-72
2023/09/12 06:02:42;;;;;;;17.20;6.70;;;;;;;17.12;100.00;101144.77;109969;1237;71093;-70
2023/09/12 06:05:11;;;;;;;11.30;6.40;;;;;;;17.26;100.00;101147.88;110110;1238;72128;-71
2023/09/12 06:07:41;;;;;;;14.00;6.60;;;;;;;17.38;100.00;101151.13;110218;1236;70740;-73
2023/09/12 06:10:10;;;;;;;13.80;6.30;;;;;;;17.56;100.00;101155.08;109898;1238;301050;-71
2023/09/12 06:12:39;;;;;;;14.90;6.80;;;;;;;17.64;100.00;101154.07;110113;1239;57422;-72
2023/09/12 06:15:09;;;;;;;13.10;6.20;;;;;;;17.71;100.00;101154.86;110143;1237;59873;-72
2023/09/12 06:17:37;;;;;;;14.60;6.00;;;;;;;17.76;100.00;101155.16;109996;1238;74051;-71
2023/09/12 06:20:07;;;;;;;17.80;6.40;;;;;;;17.73;100.00;101151.73;110238;1236;72583;-71
2023/09/12 06:22:36;;;;;;;15.30;5.90;;;;;;;17.89;100.00;101153.20;110103;1236;60641;-72
2023/09/12 06:25:06;;;;;;;16.00;6.90;;;;;;;18.04;100.00;101157.52;110251;1237;74386;-71
2023/09/12 06:27:34;;;;;;;21.60;6.60;;;;;;;18.14;100.00;101157.78;110092;1239;61645;-73
2023/09/12 06:30:04;;;;;;;13.40;6.80;;;;;;;18.22;100.00;101159.11;110252;1236;57775;-74
2023/09/12 06:32:33;;;;;;;14.00;6.70;;;;;;;18.22;100.00;101160.15;110039;1238;72027;-72
2023/09/12 06:35:02;;;;;;;14.10;6.40;;;;;;;18.23;100.00;101160.23;110240;1237;72779;-72
2023/09/12 06:37:30;;;;;;;13.40;6.50;;;;;;;18.27;100.00;101164.40;110304;1236;70680;-73
2023/09/12 06:39:59;;;;;;;18.90;6.70;;;;;;;18.32;100.00;101168.17;110026;1235;63712;-71
2023/09/12 06:42:28;;;;;;;18.00;6.70;;;;;;;18.46;100.00;101170.34;110290;1235;57572;-74
2023/09/12 06:44:57;;;;;;;19.00;7.30;;;;;;;18.61;100.00;101179.50;110296;1236;58883;-72
2023/09/12 06:47:25;;;;;;;25.00;9.60;;;;;;;18.67;100.00;101184.37;110275;1236;72613;-72
2023/09/12 06:49:54;;;;;;;16.80;6.70;;;;;;;18.71;100.00;101185.84;110234;1237;72413;-73
2023/09/12 06:52:24;;;;;;;13.00;6.00;;;;;;;18.79;100.00;101187.39;110118;1238;69937;-72
2023/09/12 06:54:53;;;;;;;16.90;6.40;;;;;;;18.90;100.00;101187.02;110101;1238;62995;-72
2023/09/12 06:57:22;;;;;;;15.50;5.40;;;;;;;19.02;100.00;101189.50;110228;1236;61000;-73
2023/09/12 06:59:50;;;;;;;11.10;5.40;;;;;;;19.12;100.00;101191.13;110259;1236;60875;-74
2023/09/12 07:02:21;;;;;;;12.80;5.00;;;;;;;19.26;100.00;101190.05;110271;1235;73007;-73
2023/09/12 07:04:50;;;;;;;12.70;5.40;;;;;;;19.38;100.00;101194.50;110220;1238;61450;-72
2023/09/12 07:07:20;;;;;;;9.60;4.90;;;;;;;19.41;100.00;101191.71;110266;1238;58991;-73
2023/09/12 07:09:49;;;;;;;15.30;5.80;;;;;;;19.50;100.00;101188.63;110259;1237;72266;-72
2023/09/12 07:12:18;;;;;;;14.50;5.60;;;;;;;19.62;100.00;101191.52;110216;1237;60701;-73
2023/09/12 07:14:46;;;;;;;17.30;12.50;;;;;;;19.75;100.00;101191.98;110221;1235;61574;-73
2023/09/12 07:17:15;;;;;;;13.60;5.30;;;;;;;19.85;100.00;101191.96;110218;1238;63161;-73
2023/09/12 07:19:44;;;;;;;8.00;4.90;;;;;;;19.96;100.00;101187.60;110139;1236;63234;-72
2023/09/12 07:22:13;;;;;;;18.20;5.50;;;;;;;20.10;100.00;101186.85;110121;1236;61196;-72
2023/09/12 07:24:42;;;;;;;14.10;5.30;;;;;;;20.18;100.00;101186.87;109966;1239;63754;-73
2023/09/12 07:27:11;;;;;;;14.80;5.60;;;;;;;20.41;100.00;101184.27;109989;1238;60033;-72
2023/09/12 07:29:40;;;;;;;17.30;5.50;;;;;;;20.57;100.00;101180.27;110154;1238;57162;-73
2023/09/12 07:32:09;;;;;;;21.30;6.60;;;;;;;20.70;100.00;101177.29;110186;1236;73539;-74
2023/09/12 07:34:37;;;;;;;10.90;4.60;;;;;;;20.82;100.00;101178.26;110213;1236;71656;-73
2023/09/12 07:37:06;;;;;;;16.20;5.30;;;;;;;20.94;100.00;101181.20;110178;1235;71076;-73
2023/09/12 07:39:35;;;;;;;14.30;5.60;;;;;;;21.05;99.94;101180.98;110090;1237;73665;-72
2023/09/12 07:42:05;;;;;;;10.40;4.80;;;;;;;21.27;99.94;101176.92;110128;1238;61286;-73
2023/09/12 07:44:34;;;;;;;11.30;4.40;;;;;;;21.47;99.37;101176.20;110156;1237;57718;-73
2023/09/12 07:47:03;;;;;;;11.60;4.60;;;;;;;21.61;98.33;101174.32;110149;1236;72930;-73
2023/09/12 07:49:32;;;;;;;28.60;6.40;;;;;;;21.68;96.65;101173.06;110221;1237;62346;-71
2023/09/12 07:52:02;;;;;;;17.00;5.50;;;;;;;21.77;96.31;101172.73;110263;1237;69702;-73
2023/09/12 07:54:30;;;;;;;11.00;4.50;;;;;;;21.85;95.21;101171.09;110210;1238;73133;-73
2023/09/12 07:56:59;;;;;;;17.40;5.50;;;;;;;22.00;94.75;101169.83;110191;1238;61612;-74
2023/09/12 07:59:28;;;;;;;11.40;4.70;;;;;;;22.11;93.47;101166.07;110135;1239;57237;-73
2023/09/12 08:01:57;;;;;;;17.30;5.50;;;;;;;22.13;92.99;101167.30;109875;1241;62749;-73
2023/09/12 08:04:26;;;;;;;11.40;4.50;;;;;;;22.28;92.53;101165.36;110091;1236;61644;-73
2023/09/12 08:06:55;;;;;;;15.00;4.60;;;;;;;22.42;91.06;101162.88;109983;1238;59842;-73
2023/09/12 08:09:48;;;;;;;8.30;4.00;;;;;;;22.52;90.08;101160.65;110090;1238;73333;-73
2023/09/12 08:12:19;;;;;;;9.20;4.70;;;;;;;22.65;89.43;101158.79;109937;1239;57492;-72
2023/09/12 08:14:48;;;;;;;12.20;3.60;;;;;;;22.83;88.04;101157.07;109756;1241;60409;-73
2023/09/12 08:17:18;;;;;;;9.10;3.80;;;;;;;23.00;87.01;101153.30;110094;1238;62809;-73
2023/09/12 08:19:47;;;;;;;9.10;4.10;;;;;;;23.21;83.95;101152.15;109769;1236;72360;-73
2023/09/12 08:22:16;;;;;;;8.40;3.70;;;;;;;23.39;81.72;101148.80;110065;1236;70942;-73
2023/09/12 08:24:46;;;;;;;8.10;4.10;;;;;;;23.64;79.68;101147.59;109964;1238;62865;-72
2023/09/12 08:27:15;;;;;;;11.30;4.00;;;;;;;23.82;78.53;101145.90;110064;1238;57106;-73
2023/09/12 08:29:47;;;;;;;16.70;3.80;;;;;;;23.82;76.40;101151.97;110078;1237;60533;-72
2023/09/12 08:32:16;;;;;;;12.00;3.50;;;;;;;23.44;78.07;101153.52;110029;1236;73102;-73
2023/09/12 08:34:45;;;;;;;8.50;3.80;;;;;;;23.50;78.75;101154.07;110066;1237;72286;-71
2023/09/12 08:37:14;;;;;;;6.70;3.50;;;;;;;23.60;79.19;101148.22;110088;1236;70450;-72
2023/09/12 08:39:45;;;;;;;8.80;4.60;;;;;;;23.64;78.29;101150.92;109953;1238;74070;-73
2023/09/12 08:42:16;;;;;;;5.20;3.40;;;;;;;23.71;78.21;101150.78;109874;1241;61123;-73
2023/09/12 08:44:45;;;;;;;9.50;3.80;;;;;;;23.99;78.44;101148.17;109759;1235;59797;-73
2023/09/12 08:47:15;;;;;;;10.90;3.60;;;;;;;24.18;77.49;101146.27;110098;1236;74207;-73
2023/09/12 08:49:45;;;;;;;7.90;4.00;;;;;;;24.42;76.77;101144.59;109871;1240;72341;-73
2023/09/12 08:52:13;;;;;;;7.10;3.50;;;;;;;24.21;73.45;101146.05;109945;1239;60705;-73
2023/09/12 08:54:42;;;;;;;13.60;4.00;;;;;;;24.30;73.07;101150.67;109943;1239;74772;-73
2023/09/12 08:57:12;;;;;;;11.80;4.40;;;;;;;24.24;72.98;101148.21;110101;1237;57727;-73
2023/09/12 08:59:44;;;;;;;6.20;3.70;;;;;;;24.04;74.20;101151.61;109961;1239;60133;-73
2023/09/12 09:02:13;;;;;;;8.70;3.30;;;;;;;24.35;73.95;101145.96;109931;1240;74087;-73
2023/09/12 09:04:46;;;;;;;7.00;3.20;;;;;;;24.46;72.89;101151.01;110261;1236;72686;-73
2023/09/12 09:07:18;;;;;;;5.40;3.10;;;;;;;24.57;72.43;101149.13;110261;1238;60470;-72
2023/09/12 09:09:51;;;;;;;9.80;4.00;;;;;;;24.86;72.48;101145.30;110159;1238;62275;-72
2023/09/12 09:12:20;;;;;;;10.20;3.50;;;;;;;25.04;70.59;101139.80;110287;1237;57305;-72
2023/09/12 09:14:49;;;;;;;8.00;3.40;;;;;;;25.19;70.27;101141.66;110134;1238;60999;-72
2023/09/12 09:17:19;;;;;;;9.60;3.10;;;;;;;25.33;68.90;101138.93;110281;1236;73309;-73
2023/09/12 09:20:08;;;;;;;4.60;2.70;;;;;;;25.29;68.08;101139.31;110158;1238;73023;-73
2023/09/12 09:22:37;;;;;;;8.30;3.00;;;;;;;25.20;67.63;101140.50;110251;1236;60553;-72
2023/09/12 09:25:12;;;;;;;6.50;3.20;;;;;;;25.17;66.96;101144.47;110235;1236;62908;-73
2023/09/12 09:27:41;;;;;;;4.20;2.90;;;;;;;25.36;66.60;101141.61;110096;1239;57673;-73
2023/09/12 09:30:11;;;;;;;8.40;3.00;;;;;;;25.56;65.61;101130.09;110270;1236;61631;-73
2023/09/12 09:32:40;;;;;;;8.40;3.00;;;;;;;25.56;64.95;101139.88;110247;1238;63631;-73
2023/09/12 09:35:09;;;;;;;6.00;3.10;;;;;;;25.65;62.98;101135.73;110142;1237;60692;-73
2023/09/12 09:37:39;;;;;;;4.60;2.30;;;;;;;25.84;61.46;101136.06;110296;1236;59108;-73
2023/09/12 09:40:09;;;;;;;8.00;2.70;;;;;;;25.74;60.90;101130.75;110266;1237;73777;-72
2023/09/12 09:42:38;;;;;;;5.60;2.60;;;;;;;25.76;60.21;101133.89;110250;1237;60667;-73
2023/09/12 09:45:08;;;;;;;4.80;3.00;;;;;;;25.85;59.81;101129.86;110146;1237;57662;-76
2023/09/12 09:47:37;;;;;;;6.20;3.10;;;;;;;25.93;58.28;101123.78;110134;1238;63968;-72
2023/09/12 09:50:06;;;;;;;17.20;4.50;;;;;;;25.88;56.18;101120.92;110266;1238;72501;-72
2023/09/12 09:52:35;;;;;;;10.20;4.40;;;;;;;25.54;57.25;101117.61;110110;1237;59037;-72
2023/09/12 09:55:07;;;;;;;7.90;3.50;;;;;;;25.44;58.20;101116.11;110076;1238;62237;-72
2023/09/12 09:57:39;;;;;;;7.70;3.30;;;;;;;25.71;58.05;101118.13;110051;1239;60213;-73
2023/09/12 10:00:08;;;;;;;8.00;3.40;;;;;;;25.77;56.27;101115.05;110213;1235;61449;-72
2023/09/12 10:02:39;;;;;;;4.90;2.60;;;;;;;25.84;56.76;101114.23;109961;1238;63852;-73
2023/09/12 10:05:11;;;;;;;8.10;2.80;;;;;;;26.08;54.77;101114.48;109958;1239;72029;-72
2023/09/12 10:07:41;;;;;;;6.80;2.90;;;;;;;26.19;54.92;101113.59;110095;1238;70443;-73
2023/09/12 10:10:11;;;;;;;15.10;4.10;;;;;;;26.18;55.64;101116.25;109971;1239;64501;-73
2023/09/12 10:12:49;;;;;;;7.40;3.40;;;;;;;26.22;55.04;101110.17;109846;1241;59608;-73
2023/09/12 10:15:20;;;;;;;10.70;3.10;;;;;;;26.52;54.03;101107.95;109975;1238;61280;-72
2023/09/12 10:18:03;;;;;;;5.80;2.60;;;;;;;26.71;53.23;101115.24;109990;1238;74344;-73
2023/09/12 10:20:50;;;;;;;6.80;2.70;;;;;;;26.56;52.68;101112.44;109866;1238;72544;-73
2023/09/12 10:23:43;;;;;;;5.90;2.40;;;;;;;26.61;53.75;101110.41;109998;1237;60366;-73
2023/09/12 10:26:14;;;;;;;5.20;2.40;;;;;;;26.99;52.14;101110.84;110094;1237;73721;-73
2023/09/12 10:28:45;;;;;;;5.20;2.50;;;;;;;27.32;52.56;101109.33;110118;1236;57543;-72
2023/09/12 10:31:16;;;;;;;9.20;2.60;;;;;;;27.86;51.64;101108.74;109966;1238;57357;-72
2023/09/12 10:33:46;;;;;;;6.70;2.80;;;;;;;28.00;51.38;101106.20;109907;1238;64723;-73
2023/09/12 10:36:18;;;;;;;8.10;2.70;;;;;;;28.22;50.86;101106.02;109968;1235;71002;-72
2023/09/12 10:38:50;;;;;;;7.60;3.00;;;;;;;27.39;51.60;101100.23;110123;1236;70719;-73
2023/09/12 10:41:23;;;;;;;8.40;2.50;;;;;;;27.75;51.25;101098.27;109986;1238;74921;-72
2023/09/12 10:43:53;;;;;;;12.70;3.60;;;;;;;28.13;49.70;101098.31;110093;1238;61541;-72
2023/09/12 10:46:23;;;;;;;11.20;3.00;;;;;;;28.26;49.67;101090.90;109986;1238;57184;-72
2023/09/12 10:48:54;;;;;;;5.50;2.50;;;;;;;28.47;47.77;101094.88;110130;1237;63376;-72
2023/09/12 10:51:23;;;;;;;7.20;2.80;;;;;;;28.77;46.01;101089.34;110088;1238;72104;-72
2023/09/12 10:53:53;;;;;;;15.00;3.30;;;;;;;28.89;45.64;101090.25;110078;1238;61813;-73
2023/09/12 10:56:24;;;;;;;8.90;2.70;;;;;;;28.37;46.24;101085.52;109940;1238;63509;-72
2023/09/12 10:59:04;;;;;;;8.10;2.50;;;;;;;28.64;45.75;101091.56;110189;1238;60302;-72
2023/09/12 11:01:35;;;;;;;13.80;2.60;;;;;;;28.57;44.31;101081.45;110267;1237;61465;-72
2023/09/12 11:04:19;;;;;;;13.10;2.80;;;;;;;29.27;43.67;101080.49;110069;1236;62568;-73
2023/09/12 11:06:50;;;;;;;10.70;3.30;;;;;;;29.40;43.20;101077.02;110247;1236;71413;-72
2023/09/12 11:09:24;;;;;;;9.00;2.90;;;;;;;29.40;42.87;101079.77;110033;1236;69491;-72
2023/09/12 11:12:05;;;;;;;54.70;6.50;;;;;;;29.65;42.39;101079.34;110014;1239;62920;-72
2023/09/12 11:14:33;;;;;;;5.80;2.60;;;;;;;29.54;42.57;101075.26;110242;1238;57702;-72
2023/09/12 11:17:08;;;;;;;9.40;3.10;;;;;;;29.97;41.95;101069.10;110111;1237;60669;-72